sensor_id;sensor_type;location;lat;lon;timestamp;P1;durP1;ratioP1;P2;durP2;ratioP2
781;SDS011;374;52.568;13.402;2023-02-03T00:02:20;9.97;;;6.57;;
781;SDS011;374;52.568;13.402;2023-02-03T00:04:45;10.57;;;6.07;;
781;SDS011;374;52.568;13.402;2023-02-03T00:07:11;6.23;;;5.37;;
781;SDS011;374;52.568;13.402;2023-02-03T00:09:37;11.57;;;7.03;;
781;SDS011;374;52.568;13.402;2023-02-03T00:12:03;9.67;;;4.53;;
781;SDS011;374;52.568;13.402;2023-02-03T00:14:30;8.83;;;5.50;;
781;SDS011;374;52.568;13.402;2023-02-03T00:16:57;7.73;;;4.67;;
781;SDS011;374;52.568;13.402;2023-02-03T00:19:23;11.80;;;5.40;;
781;SDS011;374;52.568;13.402;2023-02-03T00:21:48;5.93;;;4.63;;
781;SDS011;374;52.568;13.402;2023-02-03T00:24:14;16.53;;;5.37;;
781;SDS011;374;52.568;13.402;2023-02-03T00:26:40;10.93;;;4.83;;
781;SDS011;374;52.568;13.402;2023-02-03T00:29:06;7.90;;;4.60;;
781;SDS011;374;52.568;13.402;2023-02-03T00:31:33;4.17;;;3.60;;
781;SDS011;374;52.568;13.402;2023-02-03T00:33:58;7.10;;;4.70;;
781;SDS011;374;52.568;13.402;2023-02-03T00:36:24;7.33;;;3.67;;
781;SDS011;374;52.568;13.402;2023-02-03T00:38:50;7.93;;;4.37;;
781;SDS011;374;52.568;13.402;2023-02-03T00:41:15;8.10;;;3.97;;
781;SDS011;374;52.568;13.402;2023-02-03T00:43:42;9.37;;;3.83;;
781;SDS011;374;52.568;13.402;2023-02-03T00:46:07;6.37;;;4.30;;
781;SDS011;374;52.568;13.402;2023-02-03T00:48:33;7.17;;;4.77;;
781;SDS011;374;52.568;13.402;2023-02-03T00:51:01;5.57;;;4.03;;
781;SDS011;374;52.568;13.402;2023-02-03T00:53:27;11.77;;;5.47;;
781;SDS011;374;52.568;13.402;2023-02-03T00:55:52;13.53;;;7.00;;
781;SDS011;374;52.568;13.402;2023-02-03T00:58:18;10.40;;;4.83;;
781;SDS011;374;52.568;13.402;2023-02-03T01:00:43;5.67;;;3.93;;
781;SDS011;374;52.568;13.402;2023-02-03T01:03:09;11.13;;;4.10;;
781;SDS011;374;52.568;13.402;2023-02-03T01:05:35;8.30;;;4.20;;
781;SDS011;374;52.568;13.402;2023-02-03T01:08:01;6.63;;;4.60;;
781;SDS011;374;52.568;13.402;2023-02-03T01:10:28;10.13;;;4.93;;
781;SDS011;374;52.568;13.402;2023-02-03T01:12:54;7.40;;;4.47;;
781;SDS011;374;52.568;13.402;2023-02-03T01:15:19;6.37;;;5.10;;
781;SDS011;374;52.568;13.402;2023-02-03T01:17:45;5.70;;;4.00;;
781;SDS011;374;52.568;13.402;2023-02-03T01:20:11;8.73;;;4.33;;
781;SDS011;374;52.568;13.402;2023-02-03T01:22:37;10.40;;;4.33;;
781;SDS011;374;52.568;13.402;2023-02-03T01:25:04;6.10;;;4.23;;
781;SDS011;374;52.568;13.402;2023-02-03T01:27:30;5.20;;;3.97;;
781;SDS011;374;52.568;13.402;2023-02-03T01:29:56;9.33;;;4.60;;
781;SDS011;374;52.568;13.402;2023-02-03T01:32:22;7.90;;;4.50;;
781;SDS011;374;52.568;13.402;2023-02-03T01:34:47;7.20;;;4.43;;
781;SDS011;374;52.568;13.402;2023-02-03T01:37:13;8.00;;;4.13;;
781;SDS011;374;52.568;13.402;2023-02-03T01:39:41;7.97;;;5.10;;
781;SDS011;374;52.568;13.402;2023-02-03T01:42:07;8.43;;;4.13;;
781;SDS011;374;52.568;13.402;2023-02-03T01:44:40;9.97;;;5.03;;
781;SDS011;374;52.568;13.402;2023-02-03T01:47:15;7.17;;;5.17;;
781;SDS011;374;52.568;13.402;2023-02-03T01:52:29;6.80;;;5.40;;
781;SDS011;374;52.568;13.402;2023-02-03T01:54:58;6.13;;;4.77;;
781;SDS011;374;52.568;13.402;2023-02-03T01:57:33;5.73;;;4.20;;
781;SDS011;374;52.568;13.402;2023-02-03T02:00:06;7.53;;;4.63;;
781;SDS011;374;52.568;13.402;2023-02-03T02:02:37;5.57;;;4.27;;
781;SDS011;374;52.568;13.402;2023-02-03T02:05:10;5.93;;;5.33;;
781;SDS011;374;52.568;13.402;2023-02-03T02:07:43;6.83;;;5.20;;
781;SDS011;374;52.568;13.402;2023-02-03T02:10:10;6.80;;;4.40;;
781;SDS011;374;52.568;13.402;2023-02-03T02:12:35;7.47;;;4.43;;
781;SDS011;374;52.568;13.402;2023-02-03T02:15:02;6.07;;;4.03;;
781;SDS011;374;52.568;13.402;2023-02-03T02:17:33;6.43;;;5.30;;
781;SDS011;374;52.568;13.402;2023-02-03T02:20:29;6.90;;;4.40;;
781;SDS011;374;52.568;13.402;2023-02-03T02:28:43;6.27;;;5.03;;
781;SDS011;374;52.568;13.402;2023-02-03T02:34:38;8.07;;;4.73;;
781;SDS011;374;52.568;13.402;2023-02-03T02:45:29;5.90;;;4.63;;
781;SDS011;374;52.568;13.402;2023-02-03T02:48:06;5.23;;;4.40;;
781;SDS011;374;52.568;13.402;2023-02-03T02:50:38;9.13;;;4.17;;
781;SDS011;374;52.568;13.402;2023-02-03T02:53:07;5.63;;;4.60;;
781;SDS011;374;52.568;13.402;2023-02-03T02:55:36;5.50;;;4.47;;
781;SDS011;374;52.568;13.402;2023-02-03T02:58:05;5.03;;;4.03;;
781;SDS011;374;52.568;13.402;2023-02-03T03:00:35;8.57;;;4.80;;
781;SDS011;374;52.568;13.402;2023-02-03T03:03:14;5.73;;;4.30;;
781;SDS011;374;52.568;13.402;2023-02-03T03:05:49;5.43;;;4.13;;
781;SDS011;374;52.568;13.402;2023-02-03T03:08:32;6.93;;;4.93;;
781;SDS011;374;52.568;13.402;2023-02-03T03:11:06;6.10;;;4.50;;
781;SDS011;374;52.568;13.402;2023-02-03T03:13:33;5.47;;;4.43;;
781;SDS011;374;52.568;13.402;2023-02-03T03:16:02;4.93;;;4.43;;
781;SDS011;374;52.568;13.402;2023-02-03T03:18:41;4.43;;;4.10;;
781;SDS011;374;52.568;13.402;2023-02-03T03:21:13;10.67;;;4.30;;
781;SDS011;374;52.568;13.402;2023-02-03T03:23:44;5.87;;;3.67;;
781;SDS011;374;52.568;13.402;2023-02-03T03:26:15;4.63;;;3.73;;
781;SDS011;374;52.568;13.402;2023-02-03T03:28:51;4.30;;;3.53;;
781;SDS011;374;52.568;13.402;2023-02-03T03:31:22;4.53;;;3.63;;
781;SDS011;374;52.568;13.402;2023-02-03T03:33:47;4.03;;;3.23;;
781;SDS011;374;52.568;13.402;2023-02-03T03:36:18;4.03;;;3.40;;
781;SDS011;374;52.568;13.402;2023-02-03T03:39:34;6.70;;;3.57;;
781;SDS011;374;52.568;13.402;2023-02-03T03:44:20;3.53;;;3.03;;
781;SDS011;374;52.568;13.402;2023-02-03T03:46:55;3.37;;;3.07;;
781;SDS011;374;52.568;13.402;2023-02-03T03:49:28;2.80;;;2.60;;
781;SDS011;374;52.568;13.402;2023-02-03T03:51:56;3.63;;;3.37;;
781;SDS011;374;52.568;13.402;2023-02-03T03:54:25;3.97;;;3.57;;
781;SDS011;374;52.568;13.402;2023-02-03T03:56:57;4.50;;;2.83;;
781;SDS011;374;52.568;13.402;2023-02-03T03:59:28;3.33;;;3.07;;
781;SDS011;374;52.568;13.402;2023-02-03T04:01:58;3.67;;;3.37;;
781;SDS011;374;52.568;13.402;2023-02-03T04:04:28;3.37;;;3.07;;
781;SDS011;374;52.568;13.402;2023-02-03T04:06:55;3.67;;;3.37;;
781;SDS011;374;52.568;13.402;2023-02-03T04:09:21;3.60;;;3.30;;
781;SDS011;374;52.568;13.402;2023-02-03T04:11:46;3.80;;;3.00;;
781;SDS011;374;52.568;13.402;2023-02-03T04:14:33;3.53;;;2.80;;
781;SDS011;374;52.568;13.402;2023-02-03T04:17:02;3.63;;;3.30;;
781;SDS011;374;52.568;13.402;2023-02-03T04:19:29;3.50;;;3.20;;
781;SDS011;374;52.568;13.402;2023-02-03T04:21:54;3.50;;;3.13;;
781;SDS011;374;52.568;13.402;2023-02-03T04:24:20;3.67;;;3.37;;
781;SDS011;374;52.568;13.402;2023-02-03T04:26:46;4.10;;;3.80;;
781;SDS011;374;52.568;13.402;2023-02-03T04:29:11;7.30;;;4.53;;
781;SDS011;374;52.568;13.402;2023-02-03T04:31:37;4.77;;;4.30;;
781;SDS011;374;52.568;13.402;2023-02-03T04:34:03;5.60;;;5.00;;
781;SDS011;374;52.568;13.402;2023-02-03T04:36:28;5.00;;;4.50;;
781;SDS011;374;52.568;13.402;2023-02-03T04:38:54;6.57;;;5.40;;
781;SDS011;374;52.568;13.402;2023-02-03T04:41:19;5.27;;;4.77;;
781;SDS011;374;52.568;13.402;2023-02-03T04:43:45;5.87;;;5.03;;
781;SDS011;374;52.568;13.402;2023-02-03T04:46:10;7.77;;;6.47;;
781;SDS011;374;52.568;13.402;2023-02-03T04:48:36;8.00;;;5.97;;
781;SDS011;374;52.568;13.402;2023-02-03T04:51:02;9.90;;;7.30;;
781;SDS011;374;52.568;13.402;2023-02-03T04:53:29;8.80;;;7.00;;
781;SDS011;374;52.568;13.402;2023-02-03T04:55:55;8.00;;;6.60;;
781;SDS011;374;52.568;13.402;2023-02-03T04:58:21;7.53;;;6.33;;
781;SDS011;374;52.568;13.402;2023-02-03T05:00:46;8.53;;;6.93;;
781;SDS011;374;52.568;13.402;2023-02-03T05:03:12;6.97;;;5.70;;
781;SDS011;374;52.568;13.402;2023-02-03T05:05:38;9.60;;;8.60;;
781;SDS011;374;52.568;13.402;2023-02-03T05:08:03;8.87;;;7.03;;
781;SDS011;374;52.568;13.402;2023-02-03T05:10:29;15.33;;;7.83;;
781;SDS011;374;52.568;13.402;2023-02-03T05:12:54;11.53;;;8.90;;
781;SDS011;374;52.568;13.402;2023-02-03T05:15:20;13.47;;;8.93;;
781;SDS011;374;52.568;13.402;2023-02-03T05:17:45;12.27;;;8.93;;
781;SDS011;374;52.568;13.402;2023-02-03T05:20:11;12.47;;;9.00;;
781;SDS011;374;52.568;13.402;2023-02-03T05:22:36;14.70;;;10.00;;
781;SDS011;374;52.568;13.402;2023-02-03T05:25:02;16.70;;;11.00;;
781;SDS011;374;52.568;13.402;2023-02-03T05:27:28;14.77;;;10.57;;
781;SDS011;374;52.568;13.402;2023-02-03T05:29:54;16.60;;;11.70;;
781;SDS011;374;52.568;13.402;2023-02-03T05:32:19;15.30;;;10.83;;
781;SDS011;374;52.568;13.402;2023-02-03T05:34:45;18.10;;;11.80;;
781;SDS011;374;52.568;13.402;2023-02-03T05:37:11;16.87;;;13.03;;
781;SDS011;374;52.568;13.402;2023-02-03T05:39:36;19.20;;;12.40;;
781;SDS011;374;52.568;13.402;2023-02-03T05:42:02;21.27;;;13.77;;
781;SDS011;374;52.568;13.402;2023-02-03T05:44:28;19.67;;;12.63;;
781;SDS011;374;52.568;13.402;2023-02-03T05:46:54;19.53;;;12.90;;
781;SDS011;374;52.568;13.402;2023-02-03T05:49:21;19.87;;;14.33;;
781;SDS011;374;52.568;13.402;2023-02-03T05:51:48;19.10;;;13.40;;
781;SDS011;374;52.568;13.402;2023-02-03T05:54:14;20.43;;;14.67;;
781;SDS011;374;52.568;13.402;2023-02-03T05:56:40;24.83;;;15.57;;
781;SDS011;374;52.568;13.402;2023-02-03T05:59:06;20.67;;;14.80;;
781;SDS011;374;52.568;13.402;2023-02-03T06:01:32;21.37;;;14.73;;
781;SDS011;374;52.568;13.402;2023-02-03T06:03:58;22.90;;;16.20;;
781;SDS011;374;52.568;13.402;2023-02-03T06:06:24;18.53;;;15.20;;
781;SDS011;374;52.568;13.402;2023-02-03T06:08:51;22.47;;;15.83;;
781;SDS011;374;52.568;13.402;2023-02-03T06:11:20;22.43;;;17.30;;
781;SDS011;374;52.568;13.402;2023-02-03T06:13:45;24.13;;;15.47;;
781;SDS011;374;52.568;13.402;2023-02-03T06:16:11;19.63;;;15.40;;
781;SDS011;374;52.568;13.402;2023-02-03T06:18:36;19.13;;;14.40;;
781;SDS011;374;52.568;13.402;2023-02-03T06:21:02;22.90;;;15.60;;
781;SDS011;374;52.568;13.402;2023-02-03T06:23:27;22.03;;;15.07;;
781;SDS011;374;52.568;13.402;2023-02-03T06:25:53;22.53;;;15.67;;
781;SDS011;374;52.568;13.402;2023-02-03T06:28:19;22.30;;;14.60;;
781;SDS011;374;52.568;13.402;2023-02-03T06:30:47;26.83;;;15.53;;
781;SDS011;374;52.568;13.402;2023-02-03T06:33:14;19.90;;;14.17;;
781;SDS011;374;52.568;13.402;2023-02-03T06:35:39;19.40;;;13.70;;
781;SDS011;374;52.568;13.402;2023-02-03T06:38:05;22.27;;;15.60;;
781;SDS011;374;52.568;13.402;2023-02-03T06:40:30;21.20;;;15.70;;
781;SDS011;374;52.568;13.402;2023-02-03T06:42:56;19.03;;;14.83;;
781;SDS011;374;52.568;13.402;2023-02-03T06:45:21;21.67;;;14.80;;
781;SDS011;374;52.568;13.402;2023-02-03T06:47:48;26.37;;;15.03;;
781;SDS011;374;52.568;13.402;2023-02-03T06:50:14;19.63;;;13.83;;
781;SDS011;374;52.568;13.402;2023-02-03T06:52:40;21.53;;;14.73;;
781;SDS011;374;52.568;13.402;2023-02-03T06:55:06;25.37;;;16.13;;
781;SDS011;374;52.568;13.402;2023-02-03T06:57:32;18.80;;;13.47;;
781;SDS011;374;52.568;13.402;2023-02-03T06:59:57;21.97;;;14.57;;
781;SDS011;374;52.568;13.402;2023-02-03T07:02:23;17.80;;;12.97;;
781;SDS011;374;52.568;13.402;2023-02-03T07:04:49;20.77;;;13.77;;
781;SDS011;374;52.568;13.402;2023-02-03T07:07:15;18.33;;;13.50;;
781;SDS011;374;52.568;13.402;2023-02-03T07:09:41;21.63;;;14.30;;
781;SDS011;374;52.568;13.402;2023-02-03T07:12:07;23.60;;;13.63;;
781;SDS011;374;52.568;13.402;2023-02-03T07:14:33;20.40;;;13.50;;
781;SDS011;374;52.568;13.402;2023-02-03T07:17:03;19.30;;;13.60;;
781;SDS011;374;52.568;13.402;2023-02-03T07:19:29;18.20;;;12.60;;
781;SDS011;374;52.568;13.402;2023-02-03T07:21:54;22.70;;;13.50;;
781;SDS011;374;52.568;13.402;2023-02-03T07:24:20;15.43;;;12.60;;
781;SDS011;374;52.568;13.402;2023-02-03T07:26:45;14.33;;;12.50;;
781;SDS011;374;52.568;13.402;2023-02-03T07:29:11;16.70;;;11.97;;
781;SDS011;374;52.568;13.402;2023-02-03T07:31:36;19.27;;;13.50;;
781;SDS011;374;52.568;13.402;2023-02-03T07:34:02;22.20;;;13.13;;
781;SDS011;374;52.568;13.402;2023-02-03T07:36:28;18.90;;;13.40;;
781;SDS011;374;52.568;13.402;2023-02-03T07:38:53;14.20;;;11.93;;
781;SDS011;374;52.568;13.402;2023-02-03T07:41:19;19.53;;;12.60;;
781;SDS011;374;52.568;13.402;2023-02-03T07:43:45;19.27;;;11.50;;
781;SDS011;374;52.568;13.402;2023-02-03T07:46:10;13.83;;;10.50;;
781;SDS011;374;52.568;13.402;2023-02-03T07:48:36;15.53;;;11.50;;
781;SDS011;374;52.568;13.402;2023-02-03T07:51:01;18.80;;;12.33;;
781;SDS011;374;52.568;13.402;2023-02-03T07:53:27;15.23;;;11.03;;
781;SDS011;374;52.568;13.402;2023-02-03T07:55:52;16.80;;;11.47;;
781;SDS011;374;52.568;13.402;2023-02-03T07:58:18;15.90;;;10.83;;
781;SDS011;374;52.568;13.402;2023-02-03T08:00:43;16.00;;;11.90;;
781;SDS011;374;52.568;13.402;2023-02-03T08:03:09;15.20;;;10.97;;
781;SDS011;374;52.568;13.402;2023-02-03T08:05:35;13.33;;;10.30;;
781;SDS011;374;52.568;13.402;2023-02-03T08:08:00;10.57;;;9.47;;
781;SDS011;374;52.568;13.402;2023-02-03T08:10:26;16.67;;;11.37;;
781;SDS011;374;52.568;13.402;2023-02-03T08:12:52;15.27;;;9.97;;
781;SDS011;374;52.568;13.402;2023-02-03T08:15:18;13.60;;;10.17;;
781;SDS011;374;52.568;13.402;2023-02-03T08:17:44;14.20;;;10.23;;
781;SDS011;374;52.568;13.402;2023-02-03T08:20:10;12.63;;;10.17;;
781;SDS011;374;52.568;13.402;2023-02-03T08:22:36;15.17;;;9.40;;
781;SDS011;374;52.568;13.402;2023-02-03T08:25:01;13.20;;;8.93;;
781;SDS011;374;52.568;13.402;2023-02-03T08:27:27;9.27;;;8.20;;
781;SDS011;374;52.568;13.402;2023-02-03T08:29:54;13.17;;;9.80;;
781;SDS011;374;52.568;13.402;2023-02-03T08:32:21;13.47;;;9.70;;
781;SDS011;374;52.568;13.402;2023-02-03T08:34:48;11.03;;;9.00;;
781;SDS011;374;52.568;13.402;2023-02-03T08:37:16;10.60;;;9.00;;
781;SDS011;374;52.568;13.402;2023-02-03T08:39:43;13.27;;;8.87;;
781;SDS011;374;52.568;13.402;2023-02-03T08:42:09;12.90;;;8.67;;
781;SDS011;374;52.568;13.402;2023-02-03T08:44:35;11.07;;;7.93;;
781;SDS011;374;52.568;13.402;2023-02-03T08:47:02;9.00;;;8.10;;
781;SDS011;374;52.568;13.402;2023-02-03T08:49:29;9.77;;;8.90;;
781;SDS011;374;52.568;13.402;2023-02-03T08:51:55;9.00;;;7.70;;
781;SDS011;374;52.568;13.402;2023-02-03T08:54:21;8.70;;;7.60;;
781;SDS011;374;52.568;13.402;2023-02-03T08:56:48;7.93;;;7.13;;
781;SDS011;374;52.568;13.402;2023-02-03T08:59:14;10.00;;;7.90;;
781;SDS011;374;52.568;13.402;2023-02-03T09:01:40;9.10;;;6.93;;
781;SDS011;374;52.568;13.402;2023-02-03T09:04:08;7.90;;;6.60;;
781;SDS011;374;52.568;13.402;2023-02-03T09:06:34;9.10;;;6.90;;
781;SDS011;374;52.568;13.402;2023-02-03T09:09:00;7.37;;;6.67;;
781;SDS011;374;52.568;13.402;2023-02-03T09:11:26;9.27;;;6.87;;
781;SDS011;374;52.568;13.402;2023-02-03T09:13:52;8.77;;;6.93;;
781;SDS011;374;52.568;13.402;2023-02-03T09:16:18;7.60;;;6.80;;
781;SDS011;374;52.568;13.402;2023-02-03T09:18:47;10.27;;;7.67;;
781;SDS011;374;52.568;13.402;2023-02-03T09:21:13;8.37;;;6.37;;
781;SDS011;374;52.568;13.402;2023-02-03T09:23:40;10.73;;;5.83;;
781;SDS011;374;52.568;13.402;2023-02-03T09:26:07;9.37;;;5.47;;
781;SDS011;374;52.568;13.402;2023-02-03T09:28:34;11.00;;;7.00;;
781;SDS011;374;52.568;13.402;2023-02-03T09:31:00;5.73;;;5.03;;
781;SDS011;374;52.568;13.402;2023-02-03T09:33:26;7.07;;;5.07;;
781;SDS011;374;52.568;13.402;2023-02-03T09:35:52;9.73;;;5.10;;
781;SDS011;374;52.568;13.402;2023-02-03T09:38:18;6.60;;;5.23;;
781;SDS011;374;52.568;13.402;2023-02-03T09:40:44;5.43;;;4.93;;
781;SDS011;374;52.568;13.402;2023-02-03T09:43:29;8.50;;;5.10;;
781;SDS011;374;52.568;13.402;2023-02-03T09:46:01;5.27;;;4.77;;
781;SDS011;374;52.568;13.402;2023-02-03T09:48:36;8.83;;;5.50;;
781;SDS011;374;52.568;13.402;2023-02-03T09:51:09;6.23;;;4.73;;
781;SDS011;374;52.568;13.402;2023-02-03T09:53:44;5.13;;;4.50;;
781;SDS011;374;52.568;13.402;2023-02-03T09:56:25;5.43;;;4.77;;
781;SDS011;374;52.568;13.402;2023-02-03T09:58:54;8.43;;;5.23;;
781;SDS011;374;52.568;13.402;2023-02-03T10:01:19;7.47;;;6.63;;
781;SDS011;374;52.568;13.402;2023-02-03T10:03:51;4.67;;;4.17;;
781;SDS011;374;52.568;13.402;2023-02-03T10:22:45;4.00;;;3.70;;
781;SDS011;374;52.568;13.402;2023-02-03T10:27:49;6.03;;;3.83;;
781;SDS011;374;52.568;13.402;2023-02-03T10:30:21;5.97;;;3.10;;
781;SDS011;374;52.568;13.402;2023-02-03T10:35:40;4.77;;;2.53;;
781;SDS011;374;52.568;13.402;2023-02-03T10:41:24;2.77;;;2.50;;
781;SDS011;374;52.568;13.402;2023-02-03T10:43:51;2.60;;;2.40;;
781;SDS011;374;52.568;13.402;2023-02-03T10:46:25;10.20;;;1.97;;
781;SDS011;374;52.568;13.402;2023-02-03T10:48:51;6.10;;;2.10;;
781;SDS011;374;52.568;13.402;2023-02-03T10:51:18;12.73;;;2.60;;
781;SDS011;374;52.568;13.402;2023-02-03T10:53:51;7.93;;;1.97;;
781;SDS011;374;52.568;13.402;2023-02-03T10:56:18;4.10;;;2.23;;
781;SDS011;374;52.568;13.402;2023-02-03T10:59:04;8.53;;;2.33;;
781;SDS011;374;52.568;13.402;2023-02-03T11:01:39;8.90;;;2.00;;
781;SDS011;374;52.568;13.402;2023-02-03T11:04:24;8.60;;;2.57;;
781;SDS011;374;52.568;13.402;2023-02-03T11:07:00;13.20;;;3.77;;
781;SDS011;374;52.568;13.402;2023-02-03T11:09:30;12.00;;;2.50;;
781;SDS011;374;52.568;13.402;2023-02-03T11:14:46;9.60;;;2.80;;
781;SDS011;374;52.568;13.402;2023-02-03T11:17:14;9.40;;;2.77;;
781;SDS011;374;52.568;13.402;2023-02-03T11:19:48;5.77;;;2.27;;
781;SDS011;374;52.568;13.402;2023-02-03T11:22:32;8.67;;;2.80;;
781;SDS011;374;52.568;13.402;2023-02-03T11:25:01;6.70;;;1.83;;
781;SDS011;374;52.568;13.402;2023-02-03T11:27:29;11.63;;;4.70;;
781;SDS011;374;52.568;13.402;2023-02-03T11:30:09;11.10;;;2.93;;
781;SDS011;374;52.568;13.402;2023-02-03T11:32:46;13.33;;;3.00;;
781;SDS011;374;52.568;13.402;2023-02-03T11:37:42;11.63;;;2.67;;
781;SDS011;374;52.568;13.402;2023-02-03T11:42:36;8.93;;;3.83;;
781;SDS011;374;52.568;13.402;2023-02-03T11:47:54;9.50;;;3.57;;
781;SDS011;374;52.568;13.402;2023-02-03T11:50:23;12.83;;;4.30;;
781;SDS011;374;52.568;13.402;2023-02-03T11:53:01;16.20;;;5.33;;
781;SDS011;374;52.568;13.402;2023-02-03T12:01:13;11.83;;;3.90;;
781;SDS011;374;52.568;13.402;2023-02-03T12:04:24;13.20;;;4.63;;
781;SDS011;374;52.568;13.402;2023-02-03T12:10:20;17.00;;;4.30;;
781;SDS011;374;52.568;13.402;2023-02-03T12:16:10;16.77;;;4.23;;
781;SDS011;374;52.568;13.402;2023-02-03T12:18:53;12.93;;;4.30;;
781;SDS011;374;52.568;13.402;2023-02-03T12:21:42;17.97;;;3.80;;
781;SDS011;374;52.568;13.402;2023-02-03T12:27:09;17.70;;;5.60;;
781;SDS011;374;52.568;13.402;2023-02-03T12:29:53;16.37;;;4.00;;
781;SDS011;374;52.568;13.402;2023-02-03T12:40:48;19.13;;;5.97;;
781;SDS011;374;52.568;13.402;2023-02-03T12:43:20;14.60;;;3.97;;
781;SDS011;374;52.568;13.402;2023-02-03T12:46:09;19.87;;;4.70;;
781;SDS011;374;52.568;13.402;2023-02-03T12:57:14;5.27;;;1.93;;
781;SDS011;374;52.568;13.402;2023-02-03T13:00:00;5.80;;;2.40;;
781;SDS011;374;52.568;13.402;2023-02-03T13:05:28;14.90;;;2.50;;
781;SDS011;374;52.568;13.402;2023-02-03T13:08:19;7.23;;;2.13;;
781;SDS011;374;52.568;13.402;2023-02-03T13:10:54;12.93;;;2.93;;
781;SDS011;374;52.568;13.402;2023-02-03T13:13:34;3.80;;;1.60;;
781;SDS011;374;52.568;13.402;2023-02-03T13:16:07;6.53;;;2.63;;
781;SDS011;374;52.568;13.402;2023-02-03T13:18:39;8.13;;;2.50;;
781;SDS011;374;52.568;13.402;2023-02-03T13:21:10;12.50;;;2.93;;
781;SDS011;374;52.568;13.402;2023-02-03T13:23:41;9.60;;;3.47;;
781;SDS011;374;52.568;13.402;2023-02-03T13:26:11;9.50;;;2.90;;
781;SDS011;374;52.568;13.402;2023-02-03T13:31:42;15.13;;;3.40;;
781;SDS011;374;52.568;13.402;2023-02-03T13:34:28;15.33;;;3.63;;
781;SDS011;374;52.568;13.402;2023-02-03T13:43:01;13.87;;;3.07;;
781;SDS011;374;52.568;13.402;2023-02-03T13:45:32;12.20;;;2.90;;
781;SDS011;374;52.568;13.402;2023-02-03T13:48:15;8.43;;;3.30;;
781;SDS011;374;52.568;13.402;2023-02-03T13:50:41;11.70;;;3.40;;
781;SDS011;374;52.568;13.402;2023-02-03T13:53:21;13.53;;;4.37;;
781;SDS011;374;52.568;13.402;2023-02-03T13:55:56;21.70;;;4.40;;
781;SDS011;374;52.568;13.402;2023-02-03T14:00:58;13.93;;;3.67;;
781;SDS011;374;52.568;13.402;2023-02-03T14:05:53;14.60;;;4.10;;
781;SDS011;374;52.568;13.402;2023-02-03T14:16:37;13.87;;;5.43;;
781;SDS011;374;52.568;13.402;2023-02-03T14:21:55;18.87;;;4.93;;
781;SDS011;374;52.568;13.402;2023-02-03T14:24:37;19.70;;;5.47;;
781;SDS011;374;52.568;13.402;2023-02-03T14:27:19;15.10;;;4.43;;
781;SDS011;374;52.568;13.402;2023-02-03T14:30:05;16.57;;;5.13;;
781;SDS011;374;52.568;13.402;2023-02-03T14:32:49;26.03;;;5.57;;
781;SDS011;374;52.568;13.402;2023-02-03T14:35:15;13.57;;;4.10;;
781;SDS011;374;52.568;13.402;2023-02-03T14:37:50;17.20;;;4.50;;
781;SDS011;374;52.568;13.402;2023-02-03T14:40:23;21.37;;;4.93;;
781;SDS011;374;52.568;13.402;2023-02-03T14:43:48;19.37;;;4.40;;
781;SDS011;374;52.568;13.402;2023-02-03T14:54:40;15.53;;;5.30;;
781;SDS011;374;52.568;13.402;2023-02-03T14:57:27;17.10;;;5.20;;
781;SDS011;374;52.568;13.402;2023-02-03T15:00:04;14.90;;;4.87;;
781;SDS011;374;52.568;13.402;2023-02-03T15:05:35;19.50;;;5.20;;
781;SDS011;374;52.568;13.402;2023-02-03T15:10:54;19.83;;;7.60;;
781;SDS011;374;52.568;13.402;2023-02-03T15:13:27;20.27;;;4.63;;
781;SDS011;374;52.568;13.402;2023-02-03T15:15:54;24.37;;;5.87;;
781;SDS011;374;52.568;13.402;2023-02-03T15:18:29;13.13;;;4.57;;
781;SDS011;374;52.568;13.402;2023-02-03T15:21:00;18.73;;;5.40;;
781;SDS011;374;52.568;13.402;2023-02-03T15:23:29;18.00;;;5.40;;
781;SDS011;374;52.568;13.402;2023-02-03T15:26:26;19.43;;;5.77;;
781;SDS011;374;52.568;13.402;2023-02-03T15:28:55;21.23;;;5.07;;
781;SDS011;374;52.568;13.402;2023-02-03T15:31:28;20.13;;;5.27;;
781;SDS011;374;52.568;13.402;2023-02-03T15:33:58;19.70;;;6.50;;
781;SDS011;374;52.568;13.402;2023-02-03T15:36:49;18.80;;;4.67;;
781;SDS011;374;52.568;13.402;2023-02-03T15:39:36;20.73;;;4.77;;
781;SDS011;374;52.568;13.402;2023-02-03T15:42:11;12.23;;;4.13;;
781;SDS011;374;52.568;13.402;2023-02-03T15:44:44;15.57;;;4.77;;
781;SDS011;374;52.568;13.402;2023-02-03T15:47:19;10.23;;;4.70;;
781;SDS011;374;52.568;13.402;2023-02-03T15:49:55;13.50;;;3.87;;
781;SDS011;374;52.568;13.402;2023-02-03T15:52:25;16.33;;;5.47;;
781;SDS011;374;52.568;13.402;2023-02-03T15:54:53;12.60;;;5.00;;
781;SDS011;374;52.568;13.402;2023-02-03T15:57:28;11.37;;;4.10;;
781;SDS011;374;52.568;13.402;2023-02-03T16:00:07;10.23;;;3.60;;
781;SDS011;374;52.568;13.402;2023-02-03T16:02:54;9.90;;;4.03;;
781;SDS011;374;52.568;13.402;2023-02-03T16:05:26;6.57;;;3.47;;
781;SDS011;374;52.568;13.402;2023-02-03T16:07:53;13.27;;;3.70;;
781;SDS011;374;52.568;13.402;2023-02-03T16:10:30;16.53;;;5.37;;
781;SDS011;374;52.568;13.402;2023-02-03T16:16:48;11.87;;;4.63;;
781;SDS011;374;52.568;13.402;2023-02-03T16:19:02;17.83;;;4.50;;
781;SDS011;374;52.568;13.402;2023-02-03T16:24:34;20.37;;;5.00;;
781;SDS011;374;52.568;13.402;2023-02-03T16:29:49;18.40;;;4.57;;
781;SDS011;374;52.568;13.402;2023-02-03T16:32:33;13.10;;;4.67;;
781;SDS011;374;52.568;13.402;2023-02-03T16:35:17;20.30;;;5.00;;
781;SDS011;374;52.568;13.402;2023-02-03T16:38:19;15.70;;;4.50;;
781;SDS011;374;52.568;13.402;2023-02-03T16:41:04;15.60;;;4.10;;
781;SDS011;374;52.568;13.402;2023-02-03T16:43:58;12.87;;;4.53;;
781;SDS011;374;52.568;13.402;2023-02-03T16:46:43;19.47;;;4.20;;
781;SDS011;374;52.568;13.402;2023-02-03T16:49:29;14.33;;;4.23;;
781;SDS011;374;52.568;13.402;2023-02-03T16:52:13;16.77;;;4.60;;
781;SDS011;374;52.568;13.402;2023-02-03T16:54:38;21.13;;;5.30;;
781;SDS011;374;52.568;13.402;2023-02-03T16:57:04;11.97;;;4.43;;
781;SDS011;374;52.568;13.402;2023-02-03T16:59:29;14.47;;;4.47;;
781;SDS011;374;52.568;13.402;2023-02-03T17:01:55;23.37;;;5.63;;
781;SDS011;374;52.568;13.402;2023-02-03T17:04:20;16.17;;;3.87;;
781;SDS011;374;52.568;13.402;2023-02-03T17:06:46;8.47;;;3.93;;
781;SDS011;374;52.568;13.402;2023-02-03T17:09:15;12.10;;;4.37;;
781;SDS011;374;52.568;13.402;2023-02-03T17:11:46;15.10;;;4.60;;
781;SDS011;374;52.568;13.402;2023-02-03T17:14:11;17.33;;;5.30;;
781;SDS011;374;52.568;13.402;2023-02-03T17:16:37;24.97;;;5.27;;
781;SDS011;374;52.568;13.402;2023-02-03T17:19:02;15.20;;;5.07;;
781;SDS011;374;52.568;13.402;2023-02-03T17:21:28;14.27;;;4.93;;
781;SDS011;374;52.568;13.402;2023-02-03T17:23:54;19.20;;;4.70;;
781;SDS011;374;52.568;13.402;2023-02-03T17:26:22;13.80;;;4.30;;
781;SDS011;374;52.568;13.402;2023-02-03T17:28:48;14.03;;;5.07;;
781;SDS011;374;52.568;13.402;2023-02-03T17:31:14;14.83;;;4.90;;
781;SDS011;374;52.568;13.402;2023-02-03T17:33:42;11.43;;;4.40;;
781;SDS011;374;52.568;13.402;2023-02-03T17:36:09;19.37;;;5.27;;
781;SDS011;374;52.568;13.402;2023-02-03T17:38:50;18.33;;;5.60;;
781;SDS011;374;52.568;13.402;2023-02-03T17:41:19;17.33;;;4.37;;
781;SDS011;374;52.568;13.402;2023-02-03T17:43:47;13.93;;;4.10;;
781;SDS011;374;52.568;13.402;2023-02-03T17:46:15;9.47;;;3.87;;
781;SDS011;374;52.568;13.402;2023-02-03T17:48:42;22.30;;;5.80;;
781;SDS011;374;52.568;13.402;2023-02-03T17:51:09;17.80;;;5.93;;
781;SDS011;374;52.568;13.402;2023-02-03T17:53:41;14.43;;;5.20;;
781;SDS011;374;52.568;13.402;2023-02-03T17:56:26;16.47;;;5.77;;
781;SDS011;374;52.568;13.402;2023-02-03T17:58:55;12.93;;;4.50;;
781;SDS011;374;52.568;13.402;2023-02-03T18:01:22;18.17;;;5.43;;